sensor_id;sensor_type;location;lat;lon;timestamp;temperature;humidity
3758;DHT22;1894;51.038;13.692;2022-10-16T00:01:38;13.80;99.90
3758;DHT22;1894;51.038;13.692;2022-10-16T00:04:05;13.80;99.90
3758;DHT22;1894;51.038;13.692;2022-10-16T00:06:33;13.80;99.90
3758;DHT22;1894;51.038;13.692;2022-10-16T00:09:00;13.80;99.90
3758;DHT22;1894;51.038;13.692;2022-10-16T00:11:30;13.70;99.90
3758;DHT22;1894;51.038;13.692;2022-10-16T00:14:01;13.70;99.90
3758;DHT22;1894;51.038;13.692;2022-10-16T00:16:30;13.70;99.90
3758;DHT22;1894;51.038;13.692;2022-10-16T00:18:58;13.60;99.90
3758;DHT22;1894;51.038;13.692;2022-10-16T00:21:29;13.60;99.90
3758;DHT22;1894;51.038;13.692;2022-10-16T00:23:59;13.60;99.90
3758;DHT22;1894;51.038;13.692;2022-10-16T00:26:30;13.60;99.90
3758;DHT22;1894;51.038;13.692;2022-10-16T00:28:58;13.60;99.90
3758;DHT22;1894;51.038;13.692;2022-10-16T00:31:26;13.60;99.90
3758;DHT22;1894;51.038;13.692;2022-10-16T00:33:54;13.50;99.90
3758;DHT22;1894;51.038;13.692;2022-10-16T00:36:23;13.40;99.90
3758;DHT22;1894;51.038;13.692;2022-10-16T00:38:53;13.40;99.90
3758;DHT22;1894;51.038;13.692;2022-10-16T00:41:23;13.40;99.90
3758;DHT22;1894;51.038;13.692;2022-10-16T00:43:52;13.30;99.90
3758;DHT22;1894;51.038;13.692;2022-10-16T00:49:12;13.40;99.90
3758;DHT22;1894;51.038;13.692;2022-10-16T00:51:42;13.30;99.90
3758;DHT22;1894;51.038;13.692;2022-10-16T00:54:18;13.40;99.90
3758;DHT22;1894;51.038;13.692;2022-10-16T00:56:47;13.40;99.90
3758;DHT22;1894;51.038;13.692;2022-10-16T00:59:28;13.30;99.90
3758;DHT22;1894;51.038;13.692;2022-10-16T01:01:57;13.20;99.90
3758;DHT22;1894;51.038;13.692;2022-10-16T01:04:25;13.30;99.90
3758;DHT22;1894;51.038;13.692;2022-10-16T01:15:41;13.30;99.90
3758;DHT22;1894;51.038;13.692;2022-10-16T01:21:22;13.30;99.90
3758;DHT22;1894;51.038;13.692;2022-10-16T01:29:53;13.40;99.90
3758;DHT22;1894;51.038;13.692;2022-10-16T01:35:02;13.50;99.90
3758;DHT22;1894;51.038;13.692;2022-10-16T01:38:11;13.50;99.90
3758;DHT22;1894;51.038;13.692;2022-10-16T01:40:46;13.70;99.90
3758;DHT22;1894;51.038;13.692;2022-10-16T01:43:47;13.80;99.90
3758;DHT22;1894;51.038;13.692;2022-10-16T01:46:19;13.90;99.90
3758;DHT22;1894;51.038;13.692;2022-10-16T01:48:48;13.90;99.90
3758;DHT22;1894;51.038;13.692;2022-10-16T01:51:18;14.00;99.90
3758;DHT22;1894;51.038;13.692;2022-10-16T01:53:52;14.00;99.90
3758;DHT22;1894;51.038;13.692;2022-10-16T01:56:20;14.10;99.90
3758;DHT22;1894;51.038;13.692;2022-10-16T01:59:11;14.10;99.90
3758;DHT22;1894;51.038;13.692;2022-10-16T02:01:43;14.20;99.90
3758;DHT22;1894;51.038;13.692;2022-10-16T02:04:26;14.20;99.90
3758;DHT22;1894;51.038;13.692;2022-10-16T02:06:56;14.20;99.90
3758;DHT22;1894;51.038;13.692;2022-10-16T02:09:23;14.30;99.90
3758;DHT22;1894;51.038;13.692;2022-10-16T02:11:53;14.30;99.90
3758;DHT22;1894;51.038;13.692;2022-10-16T02:14:21;14.30;99.90
3758;DHT22;1894;51.038;13.692;2022-10-16T02:16:51;14.40;99.90
3758;DHT22;1894;51.038;13.692;2022-10-16T02:19:19;14.50;99.90
3758;DHT22;1894;51.038;13.692;2022-10-16T02:21:51;14.50;99.90
3758;DHT22;1894;51.038;13.692;2022-10-16T02:24:24;14.60;99.90
3758;DHT22;1894;51.038;13.692;2022-10-16T02:27:23;14.70;99.90
3758;DHT22;1894;51.038;13.692;2022-10-16T02:29:58;14.80;99.90
3758;DHT22;1894;51.038;13.692;2022-10-16T02:32:37;14.80;99.90
3758;DHT22;1894;51.038;13.692;2022-10-16T02:35:07;14.80;99.90
3758;DHT22;1894;51.038;13.692;2022-10-16T02:37:36;14.90;99.90
3758;DHT22;1894;51.038;13.692;2022-10-16T02:40:04;14.90;99.90
3758;DHT22;1894;51.038;13.692;2022-10-16T02:42:38;14.90;99.90
3758;DHT22;1894;51.038;13.692;2022-10-16T02:45:08;14.90;99.90
3758;DHT22;1894;51.038;13.692;2022-10-16T02:47:36;14.90;99.90
3758;DHT22;1894;51.038;13.692;2022-10-16T02:50:04;14.90;99.90
3758;DHT22;1894;51.038;13.692;2022-10-16T02:52:31;15.00;99.90
3758;DHT22;1894;51.038;13.692;2022-10-16T02:54:58;15.00;99.90
3758;DHT22;1894;51.038;13.692;2022-10-16T02:57:26;15.00;99.90
3758;DHT22;1894;51.038;13.692;2022-10-16T02:59:54;14.90;99.90
3758;DHT22;1894;51.038;13.692;2022-10-16T03:02:21;14.90;99.90
3758;DHT22;1894;51.038;13.692;2022-10-16T03:04:48;14.90;99.90
3758;DHT22;1894;51.038;13.692;2022-10-16T03:07:15;14.80;99.90
3758;DHT22;1894;51.038;13.692;2022-10-16T03:09:42;14.80;99.90
3758;DHT22;1894;51.038;13.692;2022-10-16T03:12:09;14.70;99.90
3758;DHT22;1894;51.038;13.692;2022-10-16T03:14:38;14.60;99.90
3758;DHT22;1894;51.038;13.692;2022-10-16T03:17:06;14.60;99.90
3758;DHT22;1894;51.038;13.692;2022-10-16T03:19:34;14.60;99.90
3758;DHT22;1894;51.038;13.692;2022-10-16T03:22:02;14.60;99.90
3758;DHT22;1894;51.038;13.692;2022-10-16T03:24:29;14.50;99.90
3758;DHT22;1894;51.038;13.692;2022-10-16T03:26:56;14.50;99.90
3758;DHT22;1894;51.038;13.692;2022-10-16T03:29:24;14.40;99.90
3758;DHT22;1894;51.038;13.692;2022-10-16T03:31:52;14.40;99.90
3758;DHT22;1894;51.038;13.692;2022-10-16T03:34:19;14.40;99.90
3758;DHT22;1894;51.038;13.692;2022-10-16T03:36:46;14.30;99.90
3758;DHT22;1894;51.038;13.692;2022-10-16T03:39:13;14.30;99.90
3758;DHT22;1894;51.038;13.692;2022-10-16T03:41:40;14.20;99.90
3758;DHT22;1894;51.038;13.692;2022-10-16T03:44:07;14.20;99.90
3758;DHT22;1894;51.038;13.692;2022-10-16T03:46:34;14.20;99.90
3758;DHT22;1894;51.038;13.692;2022-10-16T03:49:01;14.10;99.90
3758;DHT22;1894;51.038;13.692;2022-10-16T03:51:34;14.10;99.90
3758;DHT22;1894;51.038;13.692;2022-10-16T03:54:01;14.10;99.90
3758;DHT22;1894;51.038;13.692;2022-10-16T03:56:28;14.10;99.90
3758;DHT22;1894;51.038;13.692;2022-10-16T03:58:55;14.10;99.90
3758;DHT22;1894;51.038;13.692;2022-10-16T04:01:22;14.00;99.90
3758;DHT22;1894;51.038;13.692;2022-10-16T04:03:50;14.10;99.90
3758;DHT22;1894;51.038;13.692;2022-10-16T04:06:17;14.10;99.90
3758;DHT22;1894;51.038;13.692;2022-10-16T04:08:44;14.10;99.90
3758;DHT22;1894;51.038;13.692;2022-10-16T04:11:11;14.10;99.90
3758;DHT22;1894;51.038;13.692;2022-10-16T04:13:38;14.10;99.90
3758;DHT22;1894;51.038;13.692;2022-10-16T04:16:06;14.20;99.90
3758;DHT22;1894;51.038;13.692;2022-10-16T04:18:33;14.20;99.90
3758;DHT22;1894;51.038;13.692;2022-10-16T04:21:04;14.20;99.90
3758;DHT22;1894;51.038;13.692;2022-10-16T04:23:32;14.20;99.90
3758;DHT22;1894;51.038;13.692;2022-10-16T04:26:00;14.20;99.90
3758;DHT22;1894;51.038;13.692;2022-10-16T04:28:28;14.20;99.90
3758;DHT22;1894;51.038;13.692;2022-10-16T04:30:55;14.30;99.90
3758;DHT22;1894;51.038;13.692;2022-10-16T04:33:22;14.30;99.90
3758;DHT22;1894;51.038;13.692;2022-10-16T04:35:56;14.20;99.90
3758;DHT22;1894;51.038;13.692;2022-10-16T04:38:27;14.20;99.90
3758;DHT22;1894;51.038;13.692;2022-10-16T04:40:55;14.30;99.90
3758;DHT22;1894;51.038;13.692;2022-10-16T04:43:22;14.30;99.90
3758;DHT22;1894;51.038;13.692;2022-10-16T04:45:50;14.30;99.90
3758;DHT22;1894;51.038;13.692;2022-10-16T04:48:21;14.30;99.90
3758;DHT22;1894;51.038;13.692;2022-10-16T04:50:48;14.30;99.90
3758;DHT22;1894;51.038;13.692;2022-10-16T04:53:21;14.40;99.90
3758;DHT22;1894;51.038;13.692;2022-10-16T04:55:48;14.40;99.90
3758;DHT22;1894;51.038;13.692;2022-10-16T04:58:15;14.40;99.90
3758;DHT22;1894;51.038;13.692;2022-10-16T05:00:42;14.30;99.90
3758;DHT22;1894;51.038;13.692;2022-10-16T05:03:10;14.30;99.90
3758;DHT22;1894;51.038;13.692;2022-10-16T05:05:42;14.30;99.90
3758;DHT22;1894;51.038;13.692;2022-10-16T05:08:15;14.40;99.90
3758;DHT22;1894;51.038;13.692;2022-10-16T05:10:44;14.40;99.90
3758;DHT22;1894;51.038;13.692;2022-10-16T05:13:12;14.40;99.90
3758;DHT22;1894;51.038;13.692;2022-10-16T05:15:39;14.40;99.90
3758;DHT22;1894;51.038;13.692;2022-10-16T05:18:06;14.40;99.90
3758;DHT22;1894;51.038;13.692;2022-10-16T05:20:34;14.40;99.90
3758;DHT22;1894;51.038;13.692;2022-10-16T05:23:01;14.40;99.90
3758;DHT22;1894;51.038;13.692;2022-10-16T05:25:28;14.40;99.90
3758;DHT22;1894;51.038;13.692;2022-10-16T05:27:55;14.40;99.90
3758;DHT22;1894;51.038;13.692;2022-10-16T05:30:22;14.40;99.90
3758;DHT22;1894;51.038;13.692;2022-10-16T05:32:50;14.50;99.90
3758;DHT22;1894;51.038;13.692;2022-10-16T05:35:19;14.50;99.90
3758;DHT22;1894;51.038;13.692;2022-10-16T05:37:47;14.60;99.90
3758;DHT22;1894;51.038;13.692;2022-10-16T05:40:14;14.50;99.90
3758;DHT22;1894;51.038;13.692;2022-10-16T05:42:43;14.50;99.90
3758;DHT22;1894;51.038;13.692;2022-10-16T05:45:11;14.40;99.90
3758;DHT22;1894;51.038;13.692;2022-10-16T05:47:39;14.30;99.90
3758;DHT22;1894;51.038;13.692;2022-10-16T05:50:06;14.20;99.90
3758;DHT22;1894;51.038;13.692;2022-10-16T05:52:34;14.10;99.90
3758;DHT22;1894;51.038;13.692;2022-10-16T05:55:01;14.20;99.90
3758;DHT22;1894;51.038;13.692;2022-10-16T05:57:28;14.20;99.90
3758;DHT22;1894;51.038;13.692;2022-10-16T05:59:55;14.30;99.90
3758;DHT22;1894;51.038;13.692;2022-10-16T06:02:22;14.30;99.90
3758;DHT22;1894;51.038;13.692;2022-10-16T06:04:51;14.30;99.90
3758;DHT22;1894;51.038;13.692;2022-10-16T06:07:21;14.30;99.90
3758;DHT22;1894;51.038;13.692;2022-10-16T06:09:50;14.30;99.90
3758;DHT22;1894;51.038;13.692;2022-10-16T06:12:18;14.30;99.90
3758;DHT22;1894;51.038;13.692;2022-10-16T06:14:46;14.40;99.90
3758;DHT22;1894;51.038;13.692;2022-10-16T06:17:14;14.40;99.90
3758;DHT22;1894;51.038;13.692;2022-10-16T06:19:42;14.50;99.90
3758;DHT22;1894;51.038;13.692;2022-10-16T06:22:09;14.70;99.90
3758;DHT22;1894;51.038;13.692;2022-10-16T06:24:36;14.80;99.90
3758;DHT22;1894;51.038;13.692;2022-10-16T06:27:04;14.90;99.90
3758;DHT22;1894;51.038;13.692;2022-10-16T06:29:31;15.00;99.90
3758;DHT22;1894;51.038;13.692;2022-10-16T06:31:59;15.10;99.90
3758;DHT22;1894;51.038;13.692;2022-10-16T06:34:26;15.20;99.90
3758;DHT22;1894;51.038;13.692;2022-10-16T06:36:53;15.20;99.90
3758;DHT22;1894;51.038;13.692;2022-10-16T06:39:20;15.30;99.90
3758;DHT22;1894;51.038;13.692;2022-10-16T06:41:47;15.50;99.90
3758;DHT22;1894;51.038;13.692;2022-10-16T06:44:15;15.60;99.90
3758;DHT22;1894;51.038;13.692;2022-10-16T06:46:42;15.60;99.90
3758;DHT22;1894;51.038;13.692;2022-10-16T06:49:09;15.60;99.90
3758;DHT22;1894;51.038;13.692;2022-10-16T06:51:36;15.60;99.90
3758;DHT22;1894;51.038;13.692;2022-10-16T06:54:09;15.60;99.90
3758;DHT22;1894;51.038;13.692;2022-10-16T06:56:36;15.60;99.90
3758;DHT22;1894;51.038;13.692;2022-10-16T06:59:04;15.70;99.90
3758;DHT22;1894;51.038;13.692;2022-10-16T07:01:32;15.80;99.90
3758;DHT22;1894;51.038;13.692;2022-10-16T07:04:00;15.80;99.90
3758;DHT22;1894;51.038;13.692;2022-10-16T07:06:31;15.90;99.90
3758;DHT22;1894;51.038;13.692;2022-10-16T07:09:04;15.90;99.90
3758;DHT22;1894;51.038;13.692;2022-10-16T07:11:33;16.10;99.90
3758;DHT22;1894;51.038;13.692;2022-10-16T07:14:00;16.20;99.90
3758;DHT22;1894;51.038;13.692;2022-10-16T07:16:29;16.40;99.90
3758;DHT22;1894;51.038;13.692;2022-10-16T07:18:59;16.50;99.90
3758;DHT22;1894;51.038;13.692;2022-10-16T07:21:33;16.60;99.90
3758;DHT22;1894;51.038;13.692;2022-10-16T07:24:06;16.60;99.90
3758;DHT22;1894;51.038;13.692;2022-10-16T07:26:36;16.60;99.90
3758;DHT22;1894;51.038;13.692;2022-10-16T07:29:11;16.60;99.90
3758;DHT22;1894;51.038;13.692;2022-10-16T07:31:44;16.60;99.90
3758;DHT22;1894;51.038;13.692;2022-10-16T07:34:12;16.60;99.90
3758;DHT22;1894;51.038;13.692;2022-10-16T07:36:40;16.60;99.90
3758;DHT22;1894;51.038;13.692;2022-10-16T07:39:12;16.60;99.90
3758;DHT22;1894;51.038;13.692;2022-10-16T07:41:39;16.60;99.90
3758;DHT22;1894;51.038;13.692;2022-10-16T07:44:06;16.70;99.90
3758;DHT22;1894;51.038;13.692;2022-10-16T07:46:35;16.90;99.90
3758;DHT22;1894;51.038;13.692;2022-10-16T07:49:03;16.90;99.90
3758;DHT22;1894;51.038;13.692;2022-10-16T07:51:30;17.10;99.90
3758;DHT22;1894;51.038;13.692;2022-10-16T07:53:57;17.20;99.90
3758;DHT22;1894;51.038;13.692;2022-10-16T07:56:25;17.40;99.90
3758;DHT22;1894;51.038;13.692;2022-10-16T07:58:52;17.50;99.90
3758;DHT22;1894;51.038;13.692;2022-10-16T08:01:20;17.50;99.90
3758;DHT22;1894;51.038;13.692;2022-10-16T08:03:49;17.90;99.90
3758;DHT22;1894;51.038;13.692;2022-10-16T08:06:18;18.20;99.90
3758;DHT22;1894;51.038;13.692;2022-10-16T08:08:53;18.30;99.90
3758;DHT22;1894;51.038;13.692;2022-10-16T08:11:21;18.50;99.90
3758;DHT22;1894;51.038;13.692;2022-10-16T08:13:49;18.30;99.90
3758;DHT22;1894;51.038;13.692;2022-10-16T08:16:16;18.10;99.90
3758;DHT22;1894;51.038;13.692;2022-10-16T08:18:44;17.80;99.90
3758;DHT22;1894;51.038;13.692;2022-10-16T08:21:16;17.80;99.90
3758;DHT22;1894;51.038;13.692;2022-10-16T08:23:47;18.00;99.90
3758;DHT22;1894;51.038;13.692;2022-10-16T08:26:22;18.10;99.90
3758;DHT22;1894;51.038;13.692;2022-10-16T08:28:50;18.30;99.90
3758;DHT22;1894;51.038;13.692;2022-10-16T08:31:19;18.40;99.90
3758;DHT22;1894;51.038;13.692;2022-10-16T08:33:47;18.50;99.90
3758;DHT22;1894;51.038;13.692;2022-10-16T08:36:20;18.50;99.90
3758;DHT22;1894;51.038;13.692;2022-10-16T08:38:55;18.70;99.90
3758;DHT22;1894;51.038;13.692;2022-10-16T08:41:49;18.80;99.90
3758;DHT22;1894;51.038;13.692;2022-10-16T08:50:27;19.20;99.90
3758;DHT22;1894;51.038;13.692;2022-10-16T08:52:57;19.20;99.90
3758;DHT22;1894;51.038;13.692;2022-10-16T08:55:38;19.40;99.90
3758;DHT22;1894;51.038;13.692;2022-10-16T08:58:18;19.20;99.90
3758;DHT22;1894;51.038;13.692;2022-10-16T09:00:55;19.00;99.90
3758;DHT22;1894;51.038;13.692;2022-10-16T09:06:33;19.20;99.90
3758;DHT22;1894;51.038;13.692;2022-10-16T09:12:39;19.80;99.90
3758;DHT22;1894;51.038;13.692;2022-10-16T09:15:27;20.00;99.90
3758;DHT22;1894;51.038;13.692;2022-10-16T09:21:09;20.20;99.90
3758;DHT22;1894;51.038;13.692;2022-10-16T09:23:39;20.40;99.90
3758;DHT22;1894;51.038;13.692;2022-10-16T09:26:10;20.80;99.90
3758;DHT22;1894;51.038;13.692;2022-10-16T09:28:39;20.90;99.90
3758;DHT22;1894;51.038;13.692;2022-10-16T09:31:20;21.30;99.90
3758;DHT22;1894;51.038;13.692;2022-10-16T09:33:55;21.80;99.90
3758;DHT22;1894;51.038;13.692;2022-10-16T09:36:27;21.70;99.90
3758;DHT22;1894;51.038;13.692;2022-10-16T09:39:06;21.30;99.90
3758;DHT22;1894;51.038;13.692;2022-10-16T09:41:36;21.20;99.90
3758;DHT22;1894;51.038;13.692;2022-10-16T09:44:18;21.40;99.90
3758;DHT22;1894;51.038;13.692;2022-10-16T09:47:04;21.60;99.90
3758;DHT22;1894;51.038;13.692;2022-10-16T09:49:37;21.50;99.90
3758;DHT22;1894;51.038;13.692;2022-10-16T09:52:11;21.30;99.90
3758;DHT22;1894;51.038;13.692;2022-10-16T09:54:56;21.30;99.90
3758;DHT22;1894;51.038;13.692;2022-10-16T09:57:25;21.70;99.90
3758;DHT22;1894;51.038;13.692;2022-10-16T09:59:55;21.80;99.90
3758;DHT22;1894;51.038;13.692;2022-10-16T10:02:35;22.10;99.90
3758;DHT22;1894;51.038;13.692;2022-10-16T10:05:06;22.50;99.90
3758;DHT22;1894;51.038;13.692;2022-10-16T10:07:46;21.90;99.90
3758;DHT22;1894;51.038;13.692;2022-10-16T10:10:27;21.90;99.90
3758;DHT22;1894;51.038;13.692;2022-10-16T10:12:56;21.70;99.90
3758;DHT22;1894;51.038;13.692;2022-10-16T10:15:24;21.60;99.90
3758;DHT22;1894;51.038;13.692;2022-10-16T10:17:55;21.50;99.90
3758;DHT22;1894;51.038;13.692;2022-10-16T10:20:25;21.50;99.90
3758;DHT22;1894;51.038;13.692;2022-10-16T10:22:53;21.70;99.90
3758;DHT22;1894;51.038;13.692;2022-10-16T10:28:50;22.00;99.90
3758;DHT22;1894;51.038;13.692;2022-10-16T10:31:28;22.10;99.90
3758;DHT22;1894;51.038;13.692;2022-10-16T10:37:10;22.10;99.90
3758;DHT22;1894;51.038;13.692;2022-10-16T10:39:52;22.20;99.90
3758;DHT22;1894;51.038;13.692;2022-10-16T10:42:41;22.20;99.90
3758;DHT22;1894;51.038;13.692;2022-10-16T10:45:46;22.20;99.90
3758;DHT22;1894;51.038;13.692;2022-10-16T10:48:58;22.40;99.90
3758;DHT22;1894;51.038;13.692;2022-10-16T10:51:31;22.80;99.90
3758;DHT22;1894;51.038;13.692;2022-10-16T11:00:03;23.50;99.90
3758;DHT22;1894;51.038;13.692;2022-10-16T11:08:35;24.10;99.90
3758;DHT22;1894;51.038;13.692;2022-10-16T11:11:22;23.70;99.90
3758;DHT22;1894;51.038;13.692;2022-10-16T11:14:10;23.40;99.90
3758;DHT22;1894;51.038;13.692;2022-10-16T11:17:08;23.40;99.90
3758;DHT22;1894;51.038;13.692;2022-10-16T11:19:54;23.40;99.90
3758;DHT22;1894;51.038;13.692;2022-10-16T11:22:37;23.50;99.90
3758;DHT22;1894;51.038;13.692;2022-10-16T11:25:28;24.20;99.90
3758;DHT22;1894;51.038;13.692;2022-10-16T11:30:52;23.60;99.90
3758;DHT22;1894;51.038;13.692;2022-10-16T11:36:47;23.50;99.90
3758;DHT22;1894;51.038;13.692;2022-10-16T11:39:24;22.90;99.90
3758;DHT22;1894;51.038;13.692;2022-10-16T11:42:04;22.90;99.90
3758;DHT22;1894;51.038;13.692;2022-10-16T11:56:13;23.80;99.90
3758;DHT22;1894;51.038;13.692;2022-10-16T12:01:54;25.10;99.90
3758;DHT22;1894;51.038;13.692;2022-10-16T12:04:41;25.30;99.90
3758;DHT22;1894;51.038;13.692;2022-10-16T12:07:18;26.30;99.90
3758;DHT22;1894;51.038;13.692;2022-10-16T12:09:47;26.60;99.90
3758;DHT22;1894;51.038;13.692;2022-10-16T12:12:36;26.30;99.90
3758;DHT22;1894;51.038;13.692;2022-10-16T12:17:53;26.80;99.90
3758;DHT22;1894;51.038;13.692;2022-10-16T12:20:24;26.50;99.90
3758;DHT22;1894;51.038;13.692;2022-10-16T12:22:57;25.70;99.90
3758;DHT22;1894;51.038;13.692;2022-10-16T12:25:36;24.80;99.90
3758;DHT22;1894;51.038;13.692;2022-10-16T12:28:06;24.80;99.90
3758;DHT22;1894;51.038;13.692;2022-10-16T12:30:57;25.00;99.90
3758;DHT22;1894;51.038;13.692;2022-10-16T12:33:31;24.70;99.90
3758;DHT22;1894;51.038;13.692;2022-10-16T12:36:03;24.70;99.90
3758;DHT22;1894;51.038;13.692;2022-10-16T12:38:44;24.70;99.90
3758;DHT22;1894;51.038;13.692;2022-10-16T12:41:25;25.40;99.90
3758;DHT22;1894;51.038;13.692;2022-10-16T12:43:53;25.70;99.90
3758;DHT22;1894;51.038;13.692;2022-10-16T12:46:39;27.20;99.90
3758;DHT22;1894;51.038;13.692;2022-10-16T12:51:41;29.00;99.90
3758;DHT22;1894;51.038;13.692;2022-10-16T12:54:25;29.50;99.90
3758;DHT22;1894;51.038;13.692;2022-10-16T12:57:24;27.60;99.90
3758;DHT22;1894;51.038;13.692;2022-10-16T13:00:10;27.00;99.90
3758;DHT22;1894;51.038;13.692;2022-10-16T13:17:40;29.40;99.90
3758;DHT22;1894;51.038;13.692;2022-10-16T13:20:16;28.50;99.90
3758;DHT22;1894;51.038;13.692;2022-10-16T13:23:15;28.90;99.90
3758;DHT22;1894;51.038;13.692;2022-10-16T13:28:59;27.00;99.90
3758;DHT22;1894;51.038;13.692;2022-10-16T13:31:28;26.20;99.90
3758;DHT22;1894;51.038;13.692;2022-10-16T13:33:58;25.40;99.90
3758;DHT22;1894;51.038;13.692;2022-10-16T13:36:34;24.90;99.90
3758;DHT22;1894;51.038;13.692;2022-10-16T13:39:27;24.60;99.90
3758;DHT22;1894;51.038;13.692;2022-10-16T13:42:09;23.90;99.90
3758;DHT22;1894;51.038;13.692;2022-10-16T13:44:43;23.80;99.90
3758;DHT22;1894;51.038;13.692;2022-10-16T13:47:18;23.90;99.90
3758;DHT22;1894;51.038;13.692;2022-10-16T13:49:47;24.10;99.90
3758;DHT22;1894;51.038;13.692;2022-10-16T13:52:30;23.90;99.90
3758;DHT22;1894;51.038;13.692;2022-10-16T13:54:57;24.30;99.90
3758;DHT22;1894;51.038;13.692;2022-10-16T13:57:28;24.20;99.90
3758;DHT22;1894;51.038;13.692;2022-10-16T13:59:55;25.00;99.90
3758;DHT22;1894;51.038;13.692;2022-10-16T14:02:36;26.20;99.90
3758;DHT22;1894;51.038;13.692;2022-10-16T14:05:08;25.70;99.90
3758;DHT22;1894;51.038;13.692;2022-10-16T14:07:37;25.00;99.90
3758;DHT22;1894;51.038;13.692;2022-10-16T14:10:25;24.40;99.90
3758;DHT22;1894;51.038;13.692;2022-10-16T14:13:02;24.10;99.90
3758;DHT22;1894;51.038;13.692;2022-10-16T14:15:33;24.00;99.90
3758;DHT22;1894;51.038;13.692;2022-10-16T14:18:01;23.80;99.90
3758;DHT22;1894;51.038;13.692;2022-10-16T14:20:31;23.70;99.90
3758;DHT22;1894;51.038;13.692;2022-10-16T14:23:18;23.60;99.90
3758;DHT22;1894;51.038;13.692;2022-10-16T14:25:46;23.60;99.90
3758;DHT22;1894;51.038;13.692;2022-10-16T14:28:21;23.50;99.90
3758;DHT22;1894;51.038;13.692;2022-10-16T14:30:53;23.30;99.90
3758;DHT22;1894;51.038;13.692;2022-10-16T14:38:38;23.00;99.90
3758;DHT22;1894;51.038;13.692;2022-10-16T14:41:07;22.80;99.90
3758;DHT22;1894;51.038;13.692;2022-10-16T14:43:39;22.80;99.90
3758;DHT22;1894;51.038;13.692;2022-10-16T14:46:12;22.80;99.90
3758;DHT22;1894;51.038;13.692;2022-10-16T14:48:42;22.60;99.90
3758;DHT22;1894;51.038;13.692;2022-10-16T14:51:15;22.70;99.90
3758;DHT22;1894;51.038;13.692;2022-10-16T14:53:46;22.70;99.90
3758;DHT22;1894;51.038;13.692;2022-10-16T14:56:19;22.80;99.90
3758;DHT22;1894;51.038;13.692;2022-10-16T14:58:50;22.90;99.90
3758;DHT22;1894;51.038;13.692;2022-10-16T15:01:18;22.90;99.90
3758;DHT22;1894;51.038;13.692;2022-10-16T15:03:45;22.80;99.90
3758;DHT22;1894;51.038;13.692;2022-10-16T15:06:14;22.90;99.90
3758;DHT22;1894;51.038;13.692;2022-10-16T15:08:42;22.80;99.90
3758;DHT22;1894;51.038;13.692;2022-10-16T15:11:18;22.80;99.90
3758;DHT22;1894;51.038;13.692;2022-10-16T15:13:46;22.90;99.90
3758;DHT22;1894;51.038;13.692;2022-10-16T15:16:15;23.00;99.90
3758;DHT22;1894;51.038;13.692;2022-10-16T15:18:43;22.90;99.90
3758;DHT22;1894;51.038;13.692;2022-10-16T15:21:27;22.90;99.90
3758;DHT22;1894;51.038;13.692;2022-10-16T15:23:56;23.00;99.90
3758;DHT22;1894;51.038;13.692;2022-10-16T15:26:28;23.20;99.90
3758;DHT22;1894;51.038;13.692;2022-10-16T15:28:56;23.00;99.90
3758;DHT22;1894;51.038;13.692;2022-10-16T15:31:23;23.00;99.90
3758;DHT22;1894;51.038;13.692;2022-10-16T15:33:52;22.80;99.90
3758;DHT22;1894;51.038;13.692;2022-10-16T15:36:33;22.50;99.90
3758;DHT22;1894;51.038;13.692;2022-10-16T15:39:04;22.30;99.90
3758;DHT22;1894;51.038;13.692;2022-10-16T15:41:40;22.00;99.90
3758;DHT22;1894;51.038;13.692;2022-10-16T15:44:08;21.80;99.90
3758;DHT22;1894;51.038;13.692;2022-10-16T15:46:35;21.70;99.90
3758;DHT22;1894;51.038;13.692;2022-10-16T15:49:04;21.50;99.90
3758;DHT22;1894;51.038;13.692;2022-10-16T15:51:31;21.50;99.90
3758;DHT22;1894;51.038;13.692;2022-10-16T15:54:00;21.40;99.90
3758;DHT22;1894;51.038;13.692;2022-10-16T15:56:29;21.30;99.90
3758;DHT22;1894;51.038;13.692;2022-10-16T15:58:57;21.20;99.90
3758;DHT22;1894;51.038;13.692;2022-10-16T16:01:25;21.00;99.90
3758;DHT22;1894;51.038;13.692;2022-10-16T16:03:53;20.80;99.90
3758;DHT22;1894;51.038;13.692;2022-10-16T16:06:21;20.60;99.90
3758;DHT22;1894;51.038;13.692;2022-10-16T16:08:52;20.40;99.90
3758;DHT22;1894;51.038;13.692;2022-10-16T16:11:19;20.30;99.90
3758;DHT22;1894;51.038;13.692;2022-10-16T16:13:47;20.10;99.90
3758;DHT22;1894;51.038;13.692;2022-10-16T16:16:15;20.00;99.90
3758;DHT22;1894;51.038;13.692;2022-10-16T16:18:43;19.90;99.90
3758;DHT22;1894;51.038;13.692;2022-10-16T16:21:11;19.80;99.90
3758;DHT22;1894;51.038;13.692;2022-10-16T16:23:39;19.70;99.90
3758;DHT22;1894;51.038;13.692;2022-10-16T16:28:42;19.50;99.90
3758;DHT22;1894;51.038;13.692;2022-10-16T16:31:10;19.40;99.90
3758;DHT22;1894;51.038;13.692;2022-10-16T16:33:37;19.20;99.90
3758;DHT22;1894;51.038;13.692;2022-10-16T16:36:06;19.10;99.90
3758;DHT22;1894;51.038;13.692;2022-10-16T16:38:40;18.90;99.90
3758;DHT22;1894;51.038;13.692;2022-10-16T16:41:21;18.80;99.90
3758;DHT22;1894;51.038;13.692;2022-10-16T16:43:49;18.70;99.90
3758;DHT22;1894;51.038;13.692;2022-10-16T16:46:20;18.60;99.90
3758;DHT22;1894;51.038;13.692;2022-10-16T16:48:47;18.50;99.90
3758;DHT22;1894;51.038;13.692;2022-10-16T16:51:17;18.40;99.90
3758;DHT22;1894;51.038;13.692;2022-10-16T16:53:48;18.30;99.90
3758;DHT22;1894;51.038;13.692;2022-10-16T16:56:18;18.20;99.90
3758;DHT22;1894;51.038;13.692;2022-10-16T16:58:48;18.20;99.90
3758;DHT22;1894;51.038;13.692;2022-10-16T17:01:16;18.10;99.90
3758;DHT22;1894;51.038;13.692;2022-10-16T17:03:48;18.00;99.90
3758;DHT22;1894;51.038;13.692;2022-10-16T17:06:18;17.90;99.90
3758;DHT22;1894;51.038;13.692;2022-10-16T17:08:48;17.90;99.90
3758;DHT22;1894;51.038;13.692;2022-10-16T17:11:21;17.80;99.90
3758;DHT22;1894;51.038;13.692;2022-10-16T17:13:53;17.70;99.90
3758;DHT22;1894;51.038;13.692;2022-10-16T17:16:34;17.60;99.90
3758;DHT22;1894;51.038;13.692;2022-10-16T17:19:05;17.50;99.90
3758;DHT22;1894;51.038;13.692;2022-10-16T17:21:34;17.50;99.90
3758;DHT22;1894;51.038;13.692;2022-10-16T17:24:02;17.40;99.90
3758;DHT22;1894;51.038;13.692;2022-10-16T17:26:30;17.30;99.90
3758;DHT22;1894;51.038;13.692;2022-10-16T17:28:59;17.40;99.90
3758;DHT22;1894;51.038;13.692;2022-10-16T17:31:32;17.30;99.90
3758;DHT22;1894;51.038;13.692;2022-10-16T17:34:03;17.20;99.90
3758;DHT22;1894;51.038;13.692;2022-10-16T17:36:34;17.10;99.90
3758;DHT22;1894;51.038;13.692;2022-10-16T17:39:07;17.10;99.90
3758;DHT22;1894;51.038;13.692;2022-10-16T17:41:35;17.00;99.90
3758;DHT22;1894;51.038;13.692;2022-10-16T17:44:03;16.90;99.90
3758;DHT22;1894;51.038;13.692;2022-10-16T17:46:31;16.80;99.90
3758;DHT22;1894;51.038;13.692;2022-10-16T17:49:05;16.70;99.90
3758;DHT22;1894;51.038;13.692;2022-10-16T17:51:33;16.80;99.90
3758;DHT22;1894;51.038;13.692;2022-10-16T17:54:01;16.80;99.90
3758;DHT22;1894;51.038;13.692;2022-10-16T17:56:28;16.90;99.90
3758;DHT22;1894;51.038;13.692;2022-10-16T17:58:58;16.90;99.90
3758;DHT22;1894;51.038;13.692;2022-10-16T18:01:31;16.90;99.90
3758;DHT22;1894;51.038;13.692;2022-10-16T18:04:03;16.90;99.90